sensor_id;sensor_type;location;lat;lon;timestamp;pressure;altitude;pressure_sealevel;temperature;humidity
70745;BME280;59284;31.390;34.904;2022-11-06T00:01:33;94753.28;;;16.60;100.00
70745;BME280;59284;31.390;34.904;2022-11-06T00:04:03;94750.44;;;16.53;100.00
70745;BME280;59284;31.390;34.904;2022-11-06T00:06:29;94752.31;;;16.53;100.00
70745;BME280;59284;31.390;34.904;2022-11-06T00:09:17;94743.56;;;16.61;100.00
70745;BME280;59284;31.390;34.904;2022-11-06T00:11:43;94743.34;;;16.54;100.00
70745;BME280;59284;31.390;34.904;2022-11-06T00:14:11;94736.69;;;16.56;100.00
70745;BME280;59284;31.390;34.904;2022-11-06T00:16:38;94735.16;;;16.55;100.00
70745;BME280;59284;31.390;34.904;2022-11-06T00:19:04;94729.19;;;16.55;100.00
70745;BME280;59284;31.390;34.904;2022-11-06T00:21:34;94712.25;;;16.52;100.00
70745;BME280;59284;31.390;34.904;2022-11-06T00:24:09;94702.09;;;16.39;100.00
70745;BME280;59284;31.390;34.904;2022-11-06T00:26:35;94685.38;;;16.31;100.00
70745;BME280;59284;31.390;34.904;2022-11-06T00:29:02;94675.25;;;16.30;100.00
70745;BME280;59284;31.390;34.904;2022-11-06T00:31:32;94654.31;;;16.30;100.00
70745;BME280;59284;31.390;34.904;2022-11-06T00:34:00;94641.22;;;16.17;100.00
70745;BME280;59284;31.390;34.904;2022-11-06T00:36:28;94623.97;;;16.29;100.00
70745;BME280;59284;31.390;34.904;2022-11-06T00:38:57;94613.06;;;16.39;100.00
70745;BME280;59284;31.390;34.904;2022-11-06T00:41:24;94614.91;;;16.50;100.00
70745;BME280;59284;31.390;34.904;2022-11-06T00:44:01;94607.72;;;16.47;100.00
70745;BME280;59284;31.390;34.904;2022-11-06T00:46:27;94595.19;;;16.41;100.00
70745;BME280;59284;31.390;34.904;2022-11-06T00:48:56;94580.25;;;16.41;100.00
70745;BME280;59284;31.390;34.904;2022-11-06T00:51:31;94567.03;;;16.38;100.00
70745;BME280;59284;31.390;34.904;2022-11-06T00:54:02;94563.97;;;16.36;100.00
70745;BME280;59284;31.390;34.904;2022-11-06T00:56:29;94556.13;;;16.36;100.00
70745;BME280;59284;31.390;34.904;2022-11-06T00:58:57;94536.38;;;16.38;100.00
70745;BME280;59284;31.390;34.904;2022-11-06T01:01:30;94529.38;;;16.42;100.00
70745;BME280;59284;31.390;34.904;2022-11-06T01:03:58;94523.84;;;16.32;100.00
70745;BME280;59284;31.390;34.904;2022-11-06T01:06:30;94510.09;;;16.35;100.00
70745;BME280;59284;31.390;34.904;2022-11-06T01:08:57;94504.00;;;16.31;100.00
70745;BME280;59284;31.390;34.904;2022-11-06T01:11:35;94498.31;;;16.29;100.00
70745;BME280;59284;31.390;34.904;2022-11-06T01:14:03;94486.09;;;16.33;100.00
70745;BME280;59284;31.390;34.904;2022-11-06T01:16:34;94459.63;;;16.22;100.00
70745;BME280;59284;31.390;34.904;2022-11-06T01:19:06;94445.25;;;16.16;100.00
70745;BME280;59284;31.390;34.904;2022-11-06T01:21:37;94437.28;;;16.12;100.00
70745;BME280;59284;31.390;34.904;2022-11-06T01:24:13;94405.13;;;16.12;100.00
70745;BME280;59284;31.390;34.904;2022-11-06T01:26:39;94390.84;;;16.09;100.00
70745;BME280;59284;31.390;34.904;2022-11-06T01:29:09;94371.03;;;16.08;100.00
70745;BME280;59284;31.390;34.904;2022-11-06T01:31:35;94354.22;;;16.09;100.00
70745;BME280;59284;31.390;34.904;2022-11-06T01:34:02;94347.25;;;16.13;100.00
70745;BME280;59284;31.390;34.904;2022-11-06T01:36:32;94331.72;;;16.21;100.00
70745;BME280;59284;31.390;34.904;2022-11-06T01:39:00;94315.84;;;16.13;100.00
70745;BME280;59284;31.390;34.904;2022-11-06T01:41:53;94310.44;;;16.22;100.00
70745;BME280;59284;31.390;34.904;2022-11-06T01:47:03;94270.44;;;16.22;100.00
70745;BME280;59284;31.390;34.904;2022-11-06T01:49:35;94253.41;;;16.28;100.00
70745;BME280;59284;31.390;34.904;2022-11-06T01:52:05;94226.59;;;16.18;100.00
70745;BME280;59284;31.390;34.904;2022-11-06T01:54:34;94209.63;;;16.12;100.00
70745;BME280;59284;31.390;34.904;2022-11-06T01:57:01;94190.97;;;16.14;100.00
70745;BME280;59284;31.390;34.904;2022-11-06T01:59:31;94166.69;;;16.13;100.00
70745;BME280;59284;31.390;34.904;2022-11-06T02:01:57;94151.41;;;16.15;100.00
70745;BME280;59284;31.390;34.904;2022-11-06T02:04:27;94138.41;;;16.19;100.00
70745;BME280;59284;31.390;34.904;2022-11-06T02:06:54;94124.38;;;16.27;100.00
70745;BME280;59284;31.390;34.904;2022-11-06T02:09:21;94101.31;;;16.33;100.00
70745;BME280;59284;31.390;34.904;2022-11-06T02:12:05;94059.03;;;16.31;100.00
70745;BME280;59284;31.390;34.904;2022-11-06T02:22:48;94002.97;;;16.32;100.00
70745;BME280;59284;31.390;34.904;2022-11-06T02:28:14;93967.09;;;16.32;100.00
70745;BME280;59284;31.390;34.904;2022-11-06T02:30:45;93932.72;;;16.34;100.00
70745;BME280;59284;31.390;34.904;2022-11-06T02:33:15;93904.28;;;16.32;100.00
70745;BME280;59284;31.390;34.904;2022-11-06T02:35:51;93884.38;;;16.28;100.00
70745;BME280;59284;31.390;34.904;2022-11-06T02:38:22;93849.09;;;16.22;100.00
70745;BME280;59284;31.390;34.904;2022-11-06T02:40:56;93839.00;;;16.20;100.00
70745;BME280;59284;31.390;34.904;2022-11-06T02:43:47;93826.38;;;16.26;100.00
70745;BME280;59284;31.390;34.904;2022-11-06T02:46:20;93808.28;;;16.17;100.00
70745;BME280;59284;31.390;34.904;2022-11-06T02:49:05;93795.41;;;16.28;100.00
70745;BME280;59284;31.390;34.904;2022-11-06T02:51:40;93788.50;;;16.20;100.00
70745;BME280;59284;31.390;34.904;2022-11-06T02:54:09;93764.91;;;16.16;100.00
70745;BME280;59284;31.390;34.904;2022-11-06T02:56:38;93754.00;;;16.14;100.00
70745;BME280;59284;31.390;34.904;2022-11-06T02:59:18;93750.03;;;16.20;100.00
70745;BME280;59284;31.390;34.904;2022-11-06T03:01:52;93747.06;;;16.22;100.00
70745;BME280;59284;31.390;34.904;2022-11-06T03:07:05;93715.41;;;16.07;100.00
70745;BME280;59284;31.390;34.904;2022-11-06T03:09:34;93721.22;;;15.97;100.00
70745;BME280;59284;31.390;34.904;2022-11-06T03:12:10;93702.56;;;15.99;100.00
70745;BME280;59284;31.390;34.904;2022-11-06T03:14:52;93655.72;;;15.90;100.00
70745;BME280;59284;31.390;34.904;2022-11-06T03:20:05;93652.97;;;15.83;100.00
70745;BME280;59284;31.390;34.904;2022-11-06T03:25:30;93676.41;;;15.99;100.00
70745;BME280;59284;31.390;34.904;2022-11-06T03:30:38;93775.75;;;15.95;100.00
70745;BME280;59284;31.390;34.904;2022-11-06T03:33:07;93822.88;;;15.99;100.00
70745;BME280;59284;31.390;34.904;2022-11-06T03:35:43;93875.88;;;15.96;100.00
70745;BME280;59284;31.390;34.904;2022-11-06T03:38:38;93937.78;;;16.07;100.00
70745;BME280;59284;31.390;34.904;2022-11-06T03:41:18;94000.25;;;16.09;100.00
70745;BME280;59284;31.390;34.904;2022-11-06T03:43:48;94047.75;;;16.11;100.00
70745;BME280;59284;31.390;34.904;2022-11-06T03:46:22;94103.03;;;16.09;100.00
70745;BME280;59284;31.390;34.904;2022-11-06T03:49:04;94177.72;;;16.07;100.00
70745;BME280;59284;31.390;34.904;2022-11-06T03:51:48;94228.44;;;16.02;100.00
70745;BME280;59284;31.390;34.904;2022-11-06T03:54:31;94321.13;;;16.01;100.00
70745;BME280;59284;31.390;34.904;2022-11-06T03:57:18;94460.00;;;15.96;100.00
70745;BME280;59284;31.390;34.904;2022-11-06T04:00:04;94553.84;;;15.98;100.00
70745;BME280;59284;31.390;34.904;2022-11-06T04:02:37;94642.53;;;16.11;100.00
70745;BME280;59284;31.390;34.904;2022-11-06T04:05:10;94662.91;;;16.18;100.00
70745;BME280;59284;31.390;34.904;2022-11-06T04:07:43;94667.25;;;16.26;100.00
70745;BME280;59284;31.390;34.904;2022-11-06T04:10:34;94675.88;;;16.27;100.00
70745;BME280;59284;31.390;34.904;2022-11-06T04:13:23;94676.31;;;16.29;100.00
70745;BME280;59284;31.390;34.904;2022-11-06T04:16:07;94714.50;;;16.42;100.00
70745;BME280;59284;31.390;34.904;2022-11-06T04:18:42;94714.50;;;16.42;100.00
70745;BME280;59284;31.390;34.904;2022-11-06T04:24:42;94641.78;;;16.59;100.00
70745;BME280;59284;31.390;34.904;2022-11-06T04:45:44;94646.19;;;17.35;100.00
70745;BME280;59284;31.390;34.904;2022-11-06T04:48:33;94641.31;;;17.49;100.00
70745;BME280;59284;31.390;34.904;2022-11-06T04:51:02;94642.31;;;17.57;100.00
70745;BME280;59284;31.390;34.904;2022-11-06T04:53:31;94635.19;;;17.57;100.00
70745;BME280;59284;31.390;34.904;2022-11-06T04:56:08;94632.84;;;17.68;100.00
70745;BME280;59284;31.390;34.904;2022-11-06T04:58:35;94629.78;;;17.66;100.00
70745;BME280;59284;31.390;34.904;2022-11-06T05:01:16;94622.72;;;17.82;100.00
70745;BME280;59284;31.390;34.904;2022-11-06T05:03:52;94615.16;;;17.80;100.00
70745;BME280;59284;31.390;34.904;2022-11-06T05:06:20;94598.31;;;17.81;100.00
70745;BME280;59284;31.390;34.904;2022-11-06T05:08:46;94587.88;;;18.32;100.00
70745;BME280;59284;31.390;34.904;2022-11-06T05:11:12;94533.38;;;18.44;100.00
70745;BME280;59284;31.390;34.904;2022-11-06T05:13:51;94481.31;;;18.46;100.00
70745;BME280;59284;31.390;34.904;2022-11-06T05:16:22;94436.66;;;18.46;100.00
70745;BME280;59284;31.390;34.904;2022-11-06T05:18:57;94351.91;;;18.30;100.00
70745;BME280;59284;31.390;34.904;2022-11-06T05:21:26;94336.59;;;18.36;100.00
70745;BME280;59284;31.390;34.904;2022-11-06T05:24:11;94319.41;;;18.38;100.00
70745;BME280;59284;31.390;34.904;2022-11-06T05:26:36;94291.16;;;18.51;100.00
70745;BME280;59284;31.390;34.904;2022-11-06T05:29:07;94263.06;;;18.77;100.00
70745;BME280;59284;31.390;34.904;2022-11-06T05:31:46;94222.03;;;19.22;100.00
70745;BME280;59284;31.390;34.904;2022-11-06T05:34:28;94145.88;;;19.32;100.00
70745;BME280;59284;31.390;34.904;2022-11-06T05:36:55;94094.38;;;19.61;100.00
70745;BME280;59284;31.390;34.904;2022-11-06T05:39:21;94077.03;;;19.23;100.00
70745;BME280;59284;31.390;34.904;2022-11-06T05:42:06;94069.28;;;19.71;100.00
70745;BME280;59284;31.390;34.904;2022-11-06T05:44:32;94059.06;;;19.29;100.00
70745;BME280;59284;31.390;34.904;2022-11-06T05:47:02;94062.44;;;19.29;100.00
70745;BME280;59284;31.390;34.904;2022-11-06T05:49:52;94031.72;;;19.77;100.00
70745;BME280;59284;31.390;34.904;2022-11-06T05:52:20;94003.63;;;19.92;100.00
70745;BME280;59284;31.390;34.904;2022-11-06T05:54:50;93985.63;;;20.01;100.00
70745;BME280;59284;31.390;34.904;2022-11-06T05:57:16;93969.31;;;19.78;100.00
70745;BME280;59284;31.390;34.904;2022-11-06T05:59:42;93975.63;;;20.20;100.00
70745;BME280;59284;31.390;34.904;2022-11-06T06:02:11;93978.53;;;20.08;100.00
70745;BME280;59284;31.390;34.904;2022-11-06T06:04:37;93988.66;;;19.99;100.00
70745;BME280;59284;31.390;34.904;2022-11-06T06:07:02;93988.09;;;20.23;100.00
70745;BME280;59284;31.390;34.904;2022-11-06T06:09:32;93976.81;;;20.30;100.00
70745;BME280;59284;31.390;34.904;2022-11-06T06:11:58;93971.38;;;20.74;100.00
70745;BME280;59284;31.390;34.904;2022-11-06T06:14:29;93949.88;;;20.68;100.00
70745;BME280;59284;31.390;34.904;2022-11-06T06:16:56;93964.91;;;20.57;100.00
70745;BME280;59284;31.390;34.904;2022-11-06T06:19:31;93953.19;;;20.44;100.00
70745;BME280;59284;31.390;34.904;2022-11-06T06:22:00;93946.16;;;20.76;100.00
70745;BME280;59284;31.390;34.904;2022-11-06T06:24:26;93953.66;;;20.74;100.00
70745;BME280;59284;31.390;34.904;2022-11-06T06:26:51;93947.78;;;21.13;100.00
70745;BME280;59284;31.390;34.904;2022-11-06T06:29:22;93953.44;;;21.36;100.00
70745;BME280;59284;31.390;34.904;2022-11-06T06:34:33;93968.91;;;21.73;100.00
70745;BME280;59284;31.390;34.904;2022-11-06T06:37:11;93978.31;;;21.81;100.00
70745;BME280;59284;31.390;34.904;2022-11-06T06:39:37;93980.25;;;21.98;100.00
70745;BME280;59284;31.390;34.904;2022-11-06T07:05:19;94179.06;;;22.02;100.00
70745;BME280;59284;31.390;34.904;2022-11-06T07:08:14;94179.09;;;23.04;100.00
70745;BME280;59284;31.390;34.904;2022-11-06T07:10:40;94233.16;;;22.99;100.00
70745;BME280;59284;31.390;34.904;2022-11-06T07:13:08;94248.22;;;23.41;100.00
70745;BME280;59284;31.390;34.904;2022-11-06T07:15:34;94226.66;;;23.32;100.00
70745;BME280;59284;31.390;34.904;2022-11-06T07:18:06;94236.72;;;23.83;100.00
70745;BME280;59284;31.390;34.904;2022-11-06T07:20:33;94254.31;;;22.96;100.00
70745;BME280;59284;31.390;34.904;2022-11-06T07:25:43;94255.06;;;22.93;100.00
70745;BME280;59284;31.390;34.904;2022-11-06T07:45:19;94433.41;;;22.81;100.00
70745;BME280;59284;31.390;34.904;2022-11-06T07:47:56;94403.22;;;23.92;100.00
70745;BME280;59284;31.390;34.904;2022-11-06T07:55:58;94672.03;;;24.58;100.00
70745;BME280;59284;31.390;34.904;2022-11-06T07:58:29;94829.00;;;25.02;100.00
70745;BME280;59284;31.390;34.904;2022-11-06T08:01:04;95248.41;;;29.27;100.00
70745;BME280;59284;31.390;34.904;2022-11-06T08:03:35;95284.47;;;29.05;100.00
70745;BME280;59284;31.390;34.904;2022-11-06T08:06:38;95294.88;;;32.63;100.00
70745;BME280;59284;31.390;34.904;2022-11-06T08:09:18;95315.72;;;32.39;100.00
70745;BME280;59284;31.390;34.904;2022-11-06T08:11:47;95321.16;;;30.80;100.00
70745;BME280;59284;31.390;34.904;2022-11-06T08:14:14;95306.63;;;33.81;100.00
70745;BME280;59284;31.390;34.904;2022-11-06T08:16:40;95313.69;;;33.14;100.00
70745;BME280;59284;31.390;34.904;2022-11-06T08:19:05;95325.41;;;31.93;100.00
70745;BME280;59284;31.390;34.904;2022-11-06T08:22:05;95315.16;;;32.47;100.00
70745;BME280;59284;31.390;34.904;2022-11-06T08:30:16;95307.56;;;32.07;100.00
70745;BME280;59284;31.390;34.904;2022-11-06T08:41:35;95294.31;;;34.88;100.00
70745;BME280;59284;31.390;34.904;2022-11-06T10:07:34;95161.13;;;37.22;100.00
70745;BME280;59284;31.390;34.904;2022-11-06T10:20:18;95150.72;;;34.75;100.00
70745;BME280;59284;31.390;34.904;2022-11-06T10:35:45;95126.28;;;39.06;100.00
70745;BME280;59284;31.390;34.904;2022-11-06T10:38:12;95119.34;;;37.23;100.00
70745;BME280;59284;31.390;34.904;2022-11-06T10:40:38;95116.88;;;38.69;100.00
70745;BME280;59284;31.390;34.904;2022-11-06T10:43:44;95130.94;;;34.56;100.00
70745;BME280;59284;31.390;34.904;2022-11-06T10:46:37;95130.28;;;33.89;100.00
70745;BME280;59284;31.390;34.904;2022-11-06T10:49:55;95118.22;;;33.81;100.00
70745;BME280;59284;31.390;34.904;2022-11-06T10:52:40;95127.16;;;33.78;100.00
70745;BME280;59284;31.390;34.904;2022-11-06T10:58:30;95108.47;;;39.44;100.00
70745;BME280;59284;31.390;34.904;2022-11-06T11:00:59;95103.84;;;38.35;100.00
70745;BME280;59284;31.390;34.904;2022-11-06T11:03:35;95103.59;;;37.04;100.00
70745;BME280;59284;31.390;34.904;2022-11-06T11:06:04;95105.13;;;38.16;100.00
70745;BME280;59284;31.390;34.904;2022-11-06T11:16:28;95095.34;;;38.18;100.00
70745;BME280;59284;31.390;34.904;2022-11-06T11:19:21;95087.59;;;40.43;100.00
70745;BME280;59284;31.390;34.904;2022-11-06T11:24:18;95076.00;;;37.60;100.00
70745;BME280;59284;31.390;34.904;2022-11-06T11:26:47;95090.56;;;36.26;100.00
70745;BME280;59284;31.390;34.904;2022-11-06T11:29:17;95092.00;;;37.12;100.00
70745;BME280;59284;31.390;34.904;2022-11-06T11:31:51;95088.25;;;37.10;100.00
70745;BME280;59284;31.390;34.904;2022-11-06T11:34:21;95084.19;;;36.78;100.00
70745;BME280;59284;31.390;34.904;2022-11-06T11:36:52;95087.75;;;35.99;100.00
70745;BME280;59284;31.390;34.904;2022-11-06T11:39:26;95093.25;;;33.81;100.00
70745;BME280;59284;31.390;34.904;2022-11-06T11:41:53;95087.91;;;37.35;100.00
70745;BME280;59284;31.390;34.904;2022-11-06T11:44:19;95083.88;;;36.00;100.00
70745;BME280;59284;31.390;34.904;2022-11-06T11:46:53;95101.09;;;34.51;100.00
70745;BME280;59284;31.390;34.904;2022-11-06T11:49:33;95102.44;;;34.09;100.00
70745;BME280;59284;31.390;34.904;2022-11-06T11:52:04;95102.00;;;33.31;100.00
70745;BME280;59284;31.390;34.904;2022-11-06T11:54:38;95095.72;;;34.85;100.00
70745;BME280;59284;31.390;34.904;2022-11-06T11:57:10;95096.44;;;35.42;100.00
70745;BME280;59284;31.390;34.904;2022-11-06T11:59:48;95088.47;;;39.03;100.00
70745;BME280;59284;31.390;34.904;2022-11-06T12:02:20;95085.25;;;38.90;100.00
70745;BME280;59284;31.390;34.904;2022-11-06T12:04:51;95090.78;;;35.49;100.00
70745;BME280;59284;31.390;34.904;2022-11-06T12:07:29;95085.34;;;35.18;100.00
70745;BME280;59284;31.390;34.904;2022-11-06T12:09:58;95096.19;;;33.33;100.00
70745;BME280;59284;31.390;34.904;2022-11-06T12:12:32;95088.81;;;36.69;100.00
70745;BME280;59284;31.390;34.904;2022-11-06T12:17:41;95092.72;;;34.24;100.00
70745;BME280;59284;31.390;34.904;2022-11-06T12:24:15;95079.06;;;34.99;100.00
70745;BME280;59284;31.390;34.904;2022-11-06T12:29:30;95093.69;;;33.54;100.00
70745;BME280;59284;31.390;34.904;2022-11-06T12:35:33;95075.66;;;36.22;100.00
70745;BME280;59284;31.390;34.904;2022-11-06T12:40:29;95091.97;;;35.48;100.00
70745;BME280;59284;31.390;34.904;2022-11-06T12:49:33;95098.59;;;31.14;100.00
70745;BME280;59284;31.390;34.904;2022-11-06T12:52:11;95091.69;;;30.50;100.00
70745;BME280;59284;31.390;34.904;2022-11-06T13:00:22;95103.06;;;30.08;100.00
70745;BME280;59284;31.390;34.904;2022-11-06T13:03:28;95098.72;;;29.61;100.00
70745;BME280;59284;31.390;34.904;2022-11-06T13:06:48;95089.94;;;31.06;100.00
70745;BME280;59284;31.390;34.904;2022-11-06T13:09:29;95082.53;;;31.14;100.00
70745;BME280;59284;31.390;34.904;2022-11-06T13:12:18;95087.44;;;30.53;100.00
70745;BME280;59284;31.390;34.904;2022-11-06T13:18:24;95087.25;;;30.64;100.00
70745;BME280;59284;31.390;34.904;2022-11-06T13:21:05;95095.25;;;29.00;100.00
70745;BME280;59284;31.390;34.904;2022-11-06T13:24:15;95099.88;;;29.30;100.00
70745;BME280;59284;31.390;34.904;2022-11-06T13:26:48;95098.28;;;29.36;100.00
70745;BME280;59284;31.390;34.904;2022-11-06T13:29:18;95097.63;;;29.28;100.00
70745;BME280;59284;31.390;34.904;2022-11-06T13:32:01;95092.78;;;27.83;100.00
70745;BME280;59284;31.390;34.904;2022-11-06T13:34:33;95092.00;;;28.37;100.00
70745;BME280;59284;31.390;34.904;2022-11-06T13:37:05;95086.75;;;27.72;100.00
70745;BME280;59284;31.390;34.904;2022-11-06T13:40:05;95085.19;;;29.45;100.00
70745;BME280;59284;31.390;34.904;2022-11-06T13:42:47;95081.81;;;28.70;100.00
70745;BME280;59284;31.390;34.904;2022-11-06T13:45:15;95085.34;;;27.53;100.00
70745;BME280;59284;31.390;34.904;2022-11-06T13:50:31;95068.59;;;27.49;100.00
70745;BME280;59284;31.390;34.904;2022-11-06T13:59:15;95055.97;;;26.38;100.00
70745;BME280;59284;31.390;34.904;2022-11-06T14:01:58;95051.06;;;26.19;100.00
70745;BME280;59284;31.390;34.904;2022-11-06T14:07:32;95052.28;;;24.93;100.00
70745;BME280;59284;31.390;34.904;2022-11-06T14:09:59;95035.06;;;25.59;100.00
70745;BME280;59284;31.390;34.904;2022-11-06T14:12:25;95042.28;;;25.55;100.00
70745;BME280;59284;31.390;34.904;2022-11-06T14:15:53;95039.72;;;24.80;100.00
70745;BME280;59284;31.390;34.904;2022-11-06T14:18:00;95032.56;;;23.79;100.00
70745;BME280;59284;31.390;34.904;2022-11-06T14:26:13;95021.88;;;22.98;100.00
70745;BME280;59284;31.390;34.904;2022-11-06T14:32:31;94840.31;;;22.46;100.00
70745;BME280;59284;31.390;34.904;2022-11-06T14:40:35;94131.78;;;21.54;100.00
70745;BME280;59284;31.390;34.904;2022-11-06T14:43:21;94071.84;;;20.62;100.00
70745;BME280;59284;31.390;34.904;2022-11-06T14:45:50;93994.06;;;21.03;100.00
70745;BME280;59284;31.390;34.904;2022-11-06T14:48:44;93958.00;;;20.32;100.00
70745;BME280;59284;31.390;34.904;2022-11-06T14:51:13;93894.81;;;20.39;100.00
70745;BME280;59284;31.390;34.904;2022-11-06T14:53:47;93842.53;;;20.41;100.00
70745;BME280;59284;31.390;34.904;2022-11-06T14:56:25;93816.09;;;20.19;100.00
70745;BME280;59284;31.390;34.904;2022-11-06T14:58:58;93769.41;;;20.02;100.00
70745;BME280;59284;31.390;34.904;2022-11-06T15:01:33;93770.50;;;19.94;100.00
70745;BME280;59284;31.390;34.904;2022-11-06T15:04:04;93753.53;;;19.81;100.00
70745;BME280;59284;31.390;34.904;2022-11-06T15:11:51;93677.53;;;19.58;100.00
70745;BME280;59284;31.390;34.904;2022-11-06T15:16:54;93657.13;;;19.34;100.00
70745;BME280;59284;31.390;34.904;2022-11-06T15:19:33;93643.19;;;19.27;100.00
70745;BME280;59284;31.390;34.904;2022-11-06T15:31:29;93615.75;;;19.21;100.00
70745;BME280;59284;31.390;34.904;2022-11-06T15:34:02;93634.47;;;19.02;100.00
70745;BME280;59284;31.390;34.904;2022-11-06T15:36:37;93639.44;;;19.24;100.00
70745;BME280;59284;31.390;34.904;2022-11-06T15:41:55;93619.69;;;18.79;100.00
70745;BME280;59284;31.390;34.904;2022-11-06T15:44:23;93617.50;;;18.92;100.00
70745;BME280;59284;31.390;34.904;2022-11-06T15:46:54;93605.81;;;18.82;100.00
70745;BME280;59284;31.390;34.904;2022-11-06T15:49:20;93588.22;;;18.93;100.00
70745;BME280;59284;31.390;34.904;2022-11-06T15:51:56;93591.19;;;18.85;100.00
70745;BME280;59284;31.390;34.904;2022-11-06T15:54:39;93586.72;;;18.85;100.00
70745;BME280;59284;31.390;34.904;2022-11-06T15:57:16;93588.50;;;18.74;100.00
70745;BME280;59284;31.390;34.904;2022-11-06T15:59:43;93585.94;;;18.88;100.00
70745;BME280;59284;31.390;34.904;2022-11-06T16:02:18;93595.91;;;18.55;100.00
70745;BME280;59284;31.390;34.904;2022-11-06T16:04:45;93595.97;;;18.65;100.00
70745;BME280;59284;31.390;34.904;2022-11-06T16:07:11;93586.31;;;18.87;100.00
70745;BME280;59284;31.390;34.904;2022-11-06T16:09:39;93578.38;;;18.76;100.00
70745;BME280;59284;31.390;34.904;2022-11-06T16:12:10;93591.13;;;18.74;100.00
70745;BME280;59284;31.390;34.904;2022-11-06T16:14:38;93591.97;;;18.85;100.00
70745;BME280;59284;31.390;34.904;2022-11-06T16:17:22;93595.69;;;18.88;100.00
70745;BME280;59284;31.390;34.904;2022-11-06T16:19:52;93588.13;;;18.72;100.00
70745;BME280;59284;31.390;34.904;2022-11-06T16:22:26;93595.31;;;18.82;100.00
70745;BME280;59284;31.390;34.904;2022-11-06T16:24:57;93598.59;;;18.65;100.00
70745;BME280;59284;31.390;34.904;2022-11-06T16:27:25;93610.94;;;18.58;100.00
70745;BME280;59284;31.390;34.904;2022-11-06T16:29:55;93614.25;;;18.51;100.00
70745;BME280;59284;31.390;34.904;2022-11-06T16:32:28;93622.56;;;18.53;100.00
70745;BME280;59284;31.390;34.904;2022-11-06T16:34:54;93623.19;;;18.43;100.00
70745;BME280;59284;31.390;34.904;2022-11-06T16:39:52;93635.56;;;18.39;100.00
70745;BME280;59284;31.390;34.904;2022-11-06T16:44:48;93644.22;;;18.43;100.00
70745;BME280;59284;31.390;34.904;2022-11-06T16:47:21;93646.41;;;18.38;100.00
70745;BME280;59284;31.390;34.904;2022-11-06T16:49:55;93655.34;;;18.30;100.00
70745;BME280;59284;31.390;34.904;2022-11-06T16:52:51;93654.72;;;18.43;100.00
70745;BME280;59284;31.390;34.904;2022-11-06T16:55:23;93656.19;;;18.41;100.00
70745;BME280;59284;31.390;34.904;2022-11-06T16:57:57;93659.41;;;18.23;100.00
70745;BME280;59284;31.390;34.904;2022-11-06T17:00:26;93666.00;;;18.03;100.00
70745;BME280;59284;31.390;34.904;2022-11-06T17:03:03;93694.91;;;18.07;100.00
70745;BME280;59284;31.390;34.904;2022-11-06T17:05:51;93705.44;;;18.10;100.00
70745;BME280;59284;31.390;34.904;2022-11-06T17:13:15;93710.91;;;18.35;100.00
70745;BME280;59284;31.390;34.904;2022-11-06T17:15:43;93702.41;;;18.45;100.00
70745;BME280;59284;31.390;34.904;2022-11-06T17:18:17;93702.63;;;18.33;100.00
70745;BME280;59284;31.390;34.904;2022-11-06T17:20:55;93693.53;;;18.23;100.00
70745;BME280;59284;31.390;34.904;2022-11-06T17:23:22;93690.19;;;18.23;100.00
70745;BME280;59284;31.390;34.904;2022-11-06T17:25:52;93692.19;;;18.40;100.00
70745;BME280;59284;31.390;34.904;2022-11-06T17:28:18;93689.81;;;18.21;100.00
70745;BME280;59284;31.390;34.904;2022-11-06T17:30:45;93691.09;;;18.41;100.00
70745;BME280;59284;31.390;34.904;2022-11-06T17:33:11;93693.59;;;18.27;100.00
70745;BME280;59284;31.390;34.904;2022-11-06T17:35:37;93680.84;;;18.29;100.00
70745;BME280;59284;31.390;34.904;2022-11-06T17:38:03;93695.38;;;18.19;100.00
70745;BME280;59284;31.390;34.904;2022-11-06T17:40:29;93698.84;;;18.27;100.00
70745;BME280;59284;31.390;34.904;2022-11-06T17:42:58;93694.69;;;18.22;100.00
70745;BME280;59284;31.390;34.904;2022-11-06T17:45:24;93702.69;;;18.40;100.00
70745;BME280;59284;31.390;34.904;2022-11-06T17:47:49;93703.00;;;18.32;100.00
70745;BME280;59284;31.390;34.904;2022-11-06T17:50:16;93691.84;;;18.42;100.00
70745;BME280;59284;31.390;34.904;2022-11-06T17:52:44;93689.25;;;18.45;100.00
70745;BME280;59284;31.390;34.904;2022-11-06T17:55:09;93687.66;;;18.34;100.00
70745;BME280;59284;31.390;34.904;2022-11-06T17:57:35;93693.97;;;18.26;100.00
70745;BME280;59284;31.390;34.904;2022-11-06T18:00:01;93686.81;;;18.26;100.00
70745;BME280;59284;31.390;34.904;2022-11-06T18:02:27;93698.19;;;18.37;100.00
70745;BME280;59284;31.390;34.904;2022-11-06T18:04:53;93690.03;;;18.49;100.00
70745;BME280;59284;31.390;34.904;2022-11-06T18:07:19;93696.59;;;18.29;100.00
70745;BME280;59284;31.390;34.904;2022-11-06T18:09:45;93690.22;;;18.27;100.00
70745;BME280;59284;31.390;34.904;2022-11-06T18:12:13;93702.19;;;18.24;100.00
70745;BME280;59284;31.390;34.904;2022-11-06T18:14:39;93692.88;;;18.34;100.00
70745;BME280;59284;31.390;34.904;2022-11-06T18:17:05;93695.81;;;18.25;100.00
70745;BME280;59284;31.390;34.904;2022-11-06T18:19:31;93696.94;;;18.24;100.00
70745;BME280;59284;31.390;34.904;2022-11-06T18:21:57;93704.09;;;18.27;100.00
70745;BME280;59284;31.390;34.904;2022-11-06T18:24:23;93700.63;;;18.16;100.00
70745;BME280;59284;31.390;34.904;2022-11-06T18:26:49;93706.38;;;18.32;100.00
70745;BME280;59284;31.390;34.904;2022-11-06T18:29:15;93707.47;;;18.28;100.00
70745;BME280;59284;31.390;34.904;2022-11-06T18:31:41;93707.03;;;18.22;100.00